sensor_id;sensor_type;location;lat;lon;timestamp;P1;durP1;ratioP1;P2;durP2;ratioP2
9536;SDS011;4807;48.024;11.726;2022-12-07T00:00:09;20.70;;;9.43;;
9536;SDS011;4807;48.024;11.726;2022-12-07T00:03:19;12.97;;;8.77;;
9536;SDS011;4807;48.024;11.726;2022-12-07T00:06:28;14.13;;;8.90;;
9536;SDS011;4807;48.024;11.726;2022-12-07T00:09:36;13.10;;;8.53;;
9536;SDS011;4807;48.024;11.726;2022-12-07T00:12:45;14.10;;;9.23;;
9536;SDS011;4807;48.024;11.726;2022-12-07T00:15:55;14.33;;;9.77;;
9536;SDS011;4807;48.024;11.726;2022-12-07T00:19:09;13.93;;;8.73;;
9536;SDS011;4807;48.024;11.726;2022-12-07T00:22:19;15.00;;;9.70;;
9536;SDS011;4807;48.024;11.726;2022-12-07T00:25:27;12.77;;;8.97;;
9536;SDS011;4807;48.024;11.726;2022-12-07T00:28:38;12.87;;;8.83;;
9536;SDS011;4807;48.024;11.726;2022-12-07T00:31:48;13.57;;;9.57;;
9536;SDS011;4807;48.024;11.726;2022-12-07T00:34:57;14.23;;;8.80;;
9536;SDS011;4807;48.024;11.726;2022-12-07T00:38:05;13.80;;;8.73;;
9536;SDS011;4807;48.024;11.726;2022-12-07T00:41:14;12.70;;;9.07;;
9536;SDS011;4807;48.024;11.726;2022-12-07T00:44:25;17.00;;;9.70;;
9536;SDS011;4807;48.024;11.726;2022-12-07T00:47:35;13.00;;;8.47;;
9536;SDS011;4807;48.024;11.726;2022-12-07T00:50:43;12.40;;;8.40;;
9536;SDS011;4807;48.024;11.726;2022-12-07T00:53:52;14.63;;;8.53;;
9536;SDS011;4807;48.024;11.726;2022-12-07T00:57:00;13.47;;;8.70;;
9536;SDS011;4807;48.024;11.726;2022-12-07T01:00:09;13.57;;;8.87;;
9536;SDS011;4807;48.024;11.726;2022-12-07T01:03:19;12.93;;;7.90;;
9536;SDS011;4807;48.024;11.726;2022-12-07T01:06:28;14.00;;;9.07;;
9536;SDS011;4807;48.024;11.726;2022-12-07T01:09:37;12.53;;;8.90;;
9536;SDS011;4807;48.024;11.726;2022-12-07T01:12:45;10.43;;;7.10;;
9536;SDS011;4807;48.024;11.726;2022-12-07T01:15:56;12.83;;;8.57;;
9536;SDS011;4807;48.024;11.726;2022-12-07T01:19:08;11.03;;;6.93;;
9536;SDS011;4807;48.024;11.726;2022-12-07T01:22:16;11.03;;;8.07;;
9536;SDS011;4807;48.024;11.726;2022-12-07T01:25:25;10.73;;;7.83;;
9536;SDS011;4807;48.024;11.726;2022-12-07T01:28:33;10.70;;;6.90;;
9536;SDS011;4807;48.024;11.726;2022-12-07T01:31:41;8.77;;;6.63;;
9536;SDS011;4807;48.024;11.726;2022-12-07T01:34:51;8.90;;;6.93;;
9536;SDS011;4807;48.024;11.726;2022-12-07T01:38:00;8.60;;;6.43;;
9536;SDS011;4807;48.024;11.726;2022-12-07T01:41:09;10.13;;;7.53;;
9536;SDS011;4807;48.024;11.726;2022-12-07T01:44:21;9.93;;;7.23;;
9536;SDS011;4807;48.024;11.726;2022-12-07T01:47:31;8.37;;;6.87;;
9536;SDS011;4807;48.024;11.726;2022-12-07T01:50:41;10.80;;;7.80;;
9536;SDS011;4807;48.024;11.726;2022-12-07T01:53:51;8.80;;;6.67;;
9536;SDS011;4807;48.024;11.726;2022-12-07T01:57:01;8.13;;;6.20;;
9536;SDS011;4807;48.024;11.726;2022-12-07T02:00:14;9.93;;;6.73;;
9536;SDS011;4807;48.024;11.726;2022-12-07T02:03:25;8.93;;;6.30;;
9536;SDS011;4807;48.024;11.726;2022-12-07T02:06:43;8.10;;;5.80;;
9536;SDS011;4807;48.024;11.726;2022-12-07T02:09:53;10.87;;;6.83;;
9536;SDS011;4807;48.024;11.726;2022-12-07T02:13:02;10.80;;;6.97;;
9536;SDS011;4807;48.024;11.726;2022-12-07T02:16:19;8.33;;;6.33;;
9536;SDS011;4807;48.024;11.726;2022-12-07T02:30:57;8.20;;;6.00;;
9536;SDS011;4807;48.024;11.726;2022-12-07T02:34:15;9.50;;;6.77;;
9536;SDS011;4807;48.024;11.726;2022-12-07T02:37:34;7.73;;;5.83;;
9536;SDS011;4807;48.024;11.726;2022-12-07T02:40:51;8.60;;;5.80;;
9536;SDS011;4807;48.024;11.726;2022-12-07T02:44:06;7.23;;;4.67;;
9536;SDS011;4807;48.024;11.726;2022-12-07T02:47:21;9.43;;;6.23;;
9536;SDS011;4807;48.024;11.726;2022-12-07T02:50:32;7.50;;;5.60;;
9536;SDS011;4807;48.024;11.726;2022-12-07T02:53:41;8.10;;;6.27;;
9536;SDS011;4807;48.024;11.726;2022-12-07T02:56:52;7.47;;;5.80;;
9536;SDS011;4807;48.024;11.726;2022-12-07T03:00:13;8.27;;;6.17;;
9536;SDS011;4807;48.024;11.726;2022-12-07T03:03:28;7.90;;;6.27;;
9536;SDS011;4807;48.024;11.726;2022-12-07T03:06:39;7.43;;;5.63;;
9536;SDS011;4807;48.024;11.726;2022-12-07T03:10:00;7.17;;;5.50;;
9536;SDS011;4807;48.024;11.726;2022-12-07T03:13:16;8.30;;;6.23;;
9536;SDS011;4807;48.024;11.726;2022-12-07T03:16:33;8.30;;;6.07;;
9536;SDS011;4807;48.024;11.726;2022-12-07T03:19:49;6.97;;;5.90;;
9536;SDS011;4807;48.024;11.726;2022-12-07T03:23:06;8.73;;;5.80;;
9536;SDS011;4807;48.024;11.726;2022-12-07T03:26:18;9.33;;;6.43;;
9536;SDS011;4807;48.024;11.726;2022-12-07T03:29:33;8.67;;;6.20;;
9536;SDS011;4807;48.024;11.726;2022-12-07T03:32:50;7.13;;;5.70;;
9536;SDS011;4807;48.024;11.726;2022-12-07T03:36:09;9.17;;;6.23;;
9536;SDS011;4807;48.024;11.726;2022-12-07T03:39:25;7.27;;;5.97;;
9536;SDS011;4807;48.024;11.726;2022-12-07T03:42:41;9.70;;;7.20;;
9536;SDS011;4807;48.024;11.726;2022-12-07T03:45:52;10.67;;;7.83;;
9536;SDS011;4807;48.024;11.726;2022-12-07T03:49:18;11.03;;;7.63;;
9536;SDS011;4807;48.024;11.726;2022-12-07T03:52:36;9.13;;;6.90;;
9536;SDS011;4807;48.024;11.726;2022-12-07T03:55:49;7.87;;;6.40;;
9536;SDS011;4807;48.024;11.726;2022-12-07T03:59:01;12.57;;;7.27;;
9536;SDS011;4807;48.024;11.726;2022-12-07T04:02:11;10.73;;;6.67;;
9536;SDS011;4807;48.024;11.726;2022-12-07T04:05:21;11.77;;;7.10;;
9536;SDS011;4807;48.024;11.726;2022-12-07T04:08:31;9.63;;;7.40;;
9536;SDS011;4807;48.024;11.726;2022-12-07T04:11:40;10.93;;;7.47;;
9536;SDS011;4807;48.024;11.726;2022-12-07T04:14:48;9.60;;;6.97;;
9536;SDS011;4807;48.024;11.726;2022-12-07T04:17:56;8.97;;;7.37;;
9536;SDS011;4807;48.024;11.726;2022-12-07T04:21:05;12.40;;;7.43;;
9536;SDS011;4807;48.024;11.726;2022-12-07T04:24:15;10.93;;;7.73;;
9536;SDS011;4807;48.024;11.726;2022-12-07T04:27:23;8.40;;;6.03;;
9536;SDS011;4807;48.024;11.726;2022-12-07T04:30:32;10.03;;;6.97;;
9536;SDS011;4807;48.024;11.726;2022-12-07T04:33:40;9.13;;;6.33;;
9536;SDS011;4807;48.024;11.726;2022-12-07T04:36:48;8.43;;;6.40;;
9536;SDS011;4807;48.024;11.726;2022-12-07T04:39:59;10.57;;;7.83;;
9536;SDS011;4807;48.024;11.726;2022-12-07T04:43:07;11.13;;;7.30;;
9536;SDS011;4807;48.024;11.726;2022-12-07T04:46:16;11.20;;;6.73;;
9536;SDS011;4807;48.024;11.726;2022-12-07T04:49:24;11.73;;;6.93;;
9536;SDS011;4807;48.024;11.726;2022-12-07T04:52:33;11.83;;;7.33;;
9536;SDS011;4807;48.024;11.726;2022-12-07T04:55:43;10.17;;;7.17;;
9536;SDS011;4807;48.024;11.726;2022-12-07T04:58:52;9.40;;;7.60;;
9536;SDS011;4807;48.024;11.726;2022-12-07T05:02:01;8.87;;;6.73;;
9536;SDS011;4807;48.024;11.726;2022-12-07T05:05:10;9.33;;;7.40;;
9536;SDS011;4807;48.024;11.726;2022-12-07T05:08:19;12.93;;;7.90;;
9536;SDS011;4807;48.024;11.726;2022-12-07T05:11:29;10.83;;;7.67;;
9536;SDS011;4807;48.024;11.726;2022-12-07T05:14:46;9.07;;;7.27;;
9536;SDS011;4807;48.024;11.726;2022-12-07T05:17:54;13.77;;;8.57;;
9536;SDS011;4807;48.024;11.726;2022-12-07T05:21:03;10.83;;;7.87;;
9536;SDS011;4807;48.024;11.726;2022-12-07T05:24:12;10.10;;;7.57;;
9536;SDS011;4807;48.024;11.726;2022-12-07T05:27:23;10.90;;;8.53;;
9536;SDS011;4807;48.024;11.726;2022-12-07T05:30:31;11.83;;;8.87;;
9536;SDS011;4807;48.024;11.726;2022-12-07T05:33:40;14.87;;;9.47;;
9536;SDS011;4807;48.024;11.726;2022-12-07T05:36:48;13.27;;;8.83;;
9536;SDS011;4807;48.024;11.726;2022-12-07T05:39:57;11.17;;;8.27;;
9536;SDS011;4807;48.024;11.726;2022-12-07T05:43:07;11.73;;;8.00;;
9536;SDS011;4807;48.024;11.726;2022-12-07T05:46:16;11.63;;;8.20;;
9536;SDS011;4807;48.024;11.726;2022-12-07T05:49:24;12.33;;;8.97;;
9536;SDS011;4807;48.024;11.726;2022-12-07T05:52:33;11.73;;;8.90;;
9536;SDS011;4807;48.024;11.726;2022-12-07T05:55:41;13.93;;;9.40;;
9536;SDS011;4807;48.024;11.726;2022-12-07T05:58:52;15.43;;;10.50;;
9536;SDS011;4807;48.024;11.726;2022-12-07T06:02:18;14.17;;;9.80;;
9536;SDS011;4807;48.024;11.726;2022-12-07T06:05:26;12.80;;;8.03;;
9536;SDS011;4807;48.024;11.726;2022-12-07T06:08:35;12.47;;;8.97;;
9536;SDS011;4807;48.024;11.726;2022-12-07T06:11:43;12.83;;;9.07;;
9536;SDS011;4807;48.024;11.726;2022-12-07T06:15:11;14.57;;;9.60;;
9536;SDS011;4807;48.024;11.726;2022-12-07T06:18:20;12.43;;;8.97;;
9536;SDS011;4807;48.024;11.726;2022-12-07T06:21:28;12.07;;;8.80;;
9536;SDS011;4807;48.024;11.726;2022-12-07T06:24:37;11.13;;;8.00;;
9536;SDS011;4807;48.024;11.726;2022-12-07T06:27:47;13.07;;;8.17;;
9536;SDS011;4807;48.024;11.726;2022-12-07T06:30:59;13.07;;;9.20;;
9536;SDS011;4807;48.024;11.726;2022-12-07T06:34:08;12.03;;;8.13;;
9536;SDS011;4807;48.024;11.726;2022-12-07T06:37:19;11.73;;;7.47;;
9536;SDS011;4807;48.024;11.726;2022-12-07T06:40:27;12.43;;;7.97;;
9536;SDS011;4807;48.024;11.726;2022-12-07T06:43:37;9.50;;;7.63;;
9536;SDS011;4807;48.024;11.726;2022-12-07T06:46:46;16.50;;;8.27;;
9536;SDS011;4807;48.024;11.726;2022-12-07T06:49:56;12.40;;;7.40;;
9536;SDS011;4807;48.024;11.726;2022-12-07T06:53:04;11.57;;;7.93;;
9536;SDS011;4807;48.024;11.726;2022-12-07T06:56:12;11.80;;;8.53;;
9536;SDS011;4807;48.024;11.726;2022-12-07T06:59:21;11.20;;;8.73;;
9536;SDS011;4807;48.024;11.726;2022-12-07T07:02:31;12.00;;;8.13;;
9536;SDS011;4807;48.024;11.726;2022-12-07T07:05:39;11.30;;;8.13;;
9536;SDS011;4807;48.024;11.726;2022-12-07T07:08:49;12.20;;;8.03;;
9536;SDS011;4807;48.024;11.726;2022-12-07T07:11:57;10.20;;;7.70;;
9536;SDS011;4807;48.024;11.726;2022-12-07T07:15:06;12.57;;;8.70;;
9536;SDS011;4807;48.024;11.726;2022-12-07T07:18:17;11.80;;;7.73;;
9536;SDS011;4807;48.024;11.726;2022-12-07T07:21:27;15.00;;;8.90;;
9536;SDS011;4807;48.024;11.726;2022-12-07T07:24:35;11.30;;;8.00;;
9536;SDS011;4807;48.024;11.726;2022-12-07T07:27:43;10.93;;;8.43;;
9536;SDS011;4807;48.024;11.726;2022-12-07T07:30:51;13.80;;;8.80;;
9536;SDS011;4807;48.024;11.726;2022-12-07T07:34:01;13.67;;;8.30;;
9536;SDS011;4807;48.024;11.726;2022-12-07T07:37:09;13.60;;;8.70;;
9536;SDS011;4807;48.024;11.726;2022-12-07T07:40:27;14.43;;;10.10;;
9536;SDS011;4807;48.024;11.726;2022-12-07T07:43:36;14.63;;;8.27;;
9536;SDS011;4807;48.024;11.726;2022-12-07T07:46:45;11.90;;;8.37;;
9536;SDS011;4807;48.024;11.726;2022-12-07T07:49:54;10.50;;;7.80;;
9536;SDS011;4807;48.024;11.726;2022-12-07T07:53:03;12.23;;;8.53;;
9536;SDS011;4807;48.024;11.726;2022-12-07T07:56:11;11.53;;;8.17;;
9536;SDS011;4807;48.024;11.726;2022-12-07T07:59:20;15.27;;;8.77;;
9536;SDS011;4807;48.024;11.726;2022-12-07T08:02:28;12.23;;;9.43;;
9536;SDS011;4807;48.024;11.726;2022-12-07T08:05:38;10.83;;;7.93;;
9536;SDS011;4807;48.024;11.726;2022-12-07T08:08:46;9.10;;;6.57;;
9536;SDS011;4807;48.024;11.726;2022-12-07T08:11:55;10.33;;;6.97;;
9536;SDS011;4807;48.024;11.726;2022-12-07T08:15:03;9.70;;;7.43;;
9536;SDS011;4807;48.024;11.726;2022-12-07T08:18:14;9.80;;;6.50;;
9536;SDS011;4807;48.024;11.726;2022-12-07T08:21:24;8.03;;;6.60;;
9536;SDS011;4807;48.024;11.726;2022-12-07T08:24:33;10.30;;;6.80;;
9536;SDS011;4807;48.024;11.726;2022-12-07T08:27:41;9.77;;;7.17;;
9536;SDS011;4807;48.024;11.726;2022-12-07T08:30:50;9.60;;;6.93;;
9536;SDS011;4807;48.024;11.726;2022-12-07T08:33:58;9.70;;;6.47;;
9536;SDS011;4807;48.024;11.726;2022-12-07T08:37:08;9.87;;;6.43;;
9536;SDS011;4807;48.024;11.726;2022-12-07T08:40:16;7.77;;;6.10;;
9536;SDS011;4807;48.024;11.726;2022-12-07T08:43:27;7.67;;;5.70;;
9536;SDS011;4807;48.024;11.726;2022-12-07T08:46:36;8.20;;;5.77;;
9536;SDS011;4807;48.024;11.726;2022-12-07T08:49:49;6.63;;;5.37;;
9536;SDS011;4807;48.024;11.726;2022-12-07T08:53:02;7.33;;;5.60;;
9536;SDS011;4807;48.024;11.726;2022-12-07T08:56:12;7.23;;;5.30;;
9536;SDS011;4807;48.024;11.726;2022-12-07T08:59:21;8.83;;;5.93;;
9536;SDS011;4807;48.024;11.726;2022-12-07T09:02:30;7.17;;;5.80;;
9536;SDS011;4807;48.024;11.726;2022-12-07T09:05:39;8.20;;;5.87;;
9536;SDS011;4807;48.024;11.726;2022-12-07T09:08:49;8.47;;;6.33;;
9536;SDS011;4807;48.024;11.726;2022-12-07T09:12:02;8.23;;;6.33;;
9536;SDS011;4807;48.024;11.726;2022-12-07T09:15:11;7.53;;;5.80;;
9536;SDS011;4807;48.024;11.726;2022-12-07T09:18:19;7.57;;;5.73;;
9536;SDS011;4807;48.024;11.726;2022-12-07T09:21:28;7.77;;;6.27;;
9536;SDS011;4807;48.024;11.726;2022-12-07T09:24:38;7.97;;;6.07;;
9536;SDS011;4807;48.024;11.726;2022-12-07T09:27:47;7.40;;;5.53;;
9536;SDS011;4807;48.024;11.726;2022-12-07T09:30:55;7.43;;;5.83;;
9536;SDS011;4807;48.024;11.726;2022-12-07T09:34:24;7.97;;;6.27;;
9536;SDS011;4807;48.024;11.726;2022-12-07T09:37:32;6.20;;;5.60;;
9536;SDS011;4807;48.024;11.726;2022-12-07T09:40:44;8.20;;;5.80;;
9536;SDS011;4807;48.024;11.726;2022-12-07T09:43:58;6.80;;;5.67;;
9536;SDS011;4807;48.024;11.726;2022-12-07T09:47:12;9.30;;;6.97;;
9536;SDS011;4807;48.024;11.726;2022-12-07T09:50:21;7.57;;;6.33;;
9536;SDS011;4807;48.024;11.726;2022-12-07T09:53:33;7.67;;;6.10;;
9536;SDS011;4807;48.024;11.726;2022-12-07T09:56:46;8.80;;;6.33;;
9536;SDS011;4807;48.024;11.726;2022-12-07T09:59:55;9.73;;;6.80;;
9536;SDS011;4807;48.024;11.726;2022-12-07T10:03:10;9.43;;;7.00;;
9536;SDS011;4807;48.024;11.726;2022-12-07T10:06:20;9.67;;;6.70;;
9536;SDS011;4807;48.024;11.726;2022-12-07T10:09:29;9.17;;;7.03;;
9536;SDS011;4807;48.024;11.726;2022-12-07T10:12:59;7.13;;;5.87;;
9536;SDS011;4807;48.024;11.726;2022-12-07T10:16:35;6.73;;;5.77;;
9536;SDS011;4807;48.024;11.726;2022-12-07T10:19:47;6.93;;;5.57;;
9536;SDS011;4807;48.024;11.726;2022-12-07T10:22:57;6.80;;;4.90;;
9536;SDS011;4807;48.024;11.726;2022-12-07T10:26:19;5.83;;;4.90;;
9536;SDS011;4807;48.024;11.726;2022-12-07T10:29:37;7.27;;;5.10;;
9536;SDS011;4807;48.024;11.726;2022-12-07T10:32:46;7.23;;;6.20;;
9536;SDS011;4807;48.024;11.726;2022-12-07T10:35:55;7.97;;;6.10;;
9536;SDS011;4807;48.024;11.726;2022-12-07T10:39:10;7.97;;;6.07;;
9536;SDS011;4807;48.024;11.726;2022-12-07T10:42:22;9.07;;;6.70;;
9536;SDS011;4807;48.024;11.726;2022-12-07T10:45:34;8.13;;;6.33;;
9536;SDS011;4807;48.024;11.726;2022-12-07T10:49:13;9.07;;;7.00;;
9536;SDS011;4807;48.024;11.726;2022-12-07T10:53:06;9.13;;;6.40;;
9536;SDS011;4807;48.024;11.726;2022-12-07T10:56:54;10.40;;;6.80;;
9536;SDS011;4807;48.024;11.726;2022-12-07T11:00:18;10.13;;;7.80;;
9536;SDS011;4807;48.024;11.726;2022-12-07T11:03:34;9.80;;;7.17;;
9536;SDS011;4807;48.024;11.726;2022-12-07T11:07:06;11.43;;;7.73;;
9536;SDS011;4807;48.024;11.726;2022-12-07T11:10:26;12.47;;;9.00;;
9536;SDS011;4807;48.024;11.726;2022-12-07T11:13:47;11.03;;;7.60;;
9536;SDS011;4807;48.024;11.726;2022-12-07T11:17:05;10.17;;;6.90;;
9536;SDS011;4807;48.024;11.726;2022-12-07T11:20:33;10.87;;;7.87;;
9536;SDS011;4807;48.024;11.726;2022-12-07T11:23:52;8.40;;;6.57;;
9536;SDS011;4807;48.024;11.726;2022-12-07T11:27:14;7.80;;;6.03;;
9536;SDS011;4807;48.024;11.726;2022-12-07T11:30:34;8.03;;;6.10;;
9536;SDS011;4807;48.024;11.726;2022-12-07T11:33:53;8.00;;;6.00;;
9536;SDS011;4807;48.024;11.726;2022-12-07T11:37:10;7.13;;;5.70;;
9536;SDS011;4807;48.024;11.726;2022-12-07T11:40:26;8.50;;;6.37;;
9536;SDS011;4807;48.024;11.726;2022-12-07T11:43:45;7.03;;;5.60;;
9536;SDS011;4807;48.024;11.726;2022-12-07T11:47:05;6.20;;;5.20;;
9536;SDS011;4807;48.024;11.726;2022-12-07T11:50:25;7.10;;;6.10;;
9536;SDS011;4807;48.024;11.726;2022-12-07T11:53:42;7.67;;;6.20;;
9536;SDS011;4807;48.024;11.726;2022-12-07T11:56:56;7.47;;;5.87;;
9536;SDS011;4807;48.024;11.726;2022-12-07T12:00:15;7.63;;;5.73;;
9536;SDS011;4807;48.024;11.726;2022-12-07T12:03:28;7.70;;;5.47;;
9536;SDS011;4807;48.024;11.726;2022-12-07T12:06:45;6.97;;;5.20;;
9536;SDS011;4807;48.024;11.726;2022-12-07T12:09:56;8.00;;;6.10;;
9536;SDS011;4807;48.024;11.726;2022-12-07T12:13:17;7.17;;;5.57;;
9536;SDS011;4807;48.024;11.726;2022-12-07T12:17:32;6.27;;;5.10;;
9536;SDS011;4807;48.024;11.726;2022-12-07T12:21:08;9.33;;;5.17;;
9536;SDS011;4807;48.024;11.726;2022-12-07T12:24:25;8.43;;;6.10;;
9536;SDS011;4807;48.024;11.726;2022-12-07T12:27:44;7.80;;;5.40;;
9536;SDS011;4807;48.024;11.726;2022-12-07T12:31:05;7.17;;;5.50;;
9536;SDS011;4807;48.024;11.726;2022-12-07T12:34:30;7.37;;;5.60;;
9536;SDS011;4807;48.024;11.726;2022-12-07T12:37:53;7.43;;;5.63;;
9536;SDS011;4807;48.024;11.726;2022-12-07T12:45:19;8.67;;;5.90;;
9536;SDS011;4807;48.024;11.726;2022-12-07T12:48:31;8.67;;;6.77;;
9536;SDS011;4807;48.024;11.726;2022-12-07T12:51:45;6.33;;;5.40;;
9536;SDS011;4807;48.024;11.726;2022-12-07T12:54:57;8.07;;;6.17;;
9536;SDS011;4807;48.024;11.726;2022-12-07T13:01:51;6.97;;;6.13;;
9536;SDS011;4807;48.024;11.726;2022-12-07T13:05:15;7.70;;;6.00;;
9536;SDS011;4807;48.024;11.726;2022-12-07T13:08:27;7.97;;;6.17;;
9536;SDS011;4807;48.024;11.726;2022-12-07T13:11:41;9.03;;;7.43;;
9536;SDS011;4807;48.024;11.726;2022-12-07T13:14:58;9.63;;;5.47;;
9536;SDS011;4807;48.024;11.726;2022-12-07T13:18:23;8.60;;;6.40;;
9536;SDS011;4807;48.024;11.726;2022-12-07T13:21:42;10.17;;;6.60;;
9536;SDS011;4807;48.024;11.726;2022-12-07T13:24:54;8.87;;;6.43;;
9536;SDS011;4807;48.024;11.726;2022-12-07T13:28:08;8.73;;;6.27;;
9536;SDS011;4807;48.024;11.726;2022-12-07T13:31:29;8.97;;;6.43;;
9536;SDS011;4807;48.024;11.726;2022-12-07T13:34:42;7.90;;;6.10;;
9536;SDS011;4807;48.024;11.726;2022-12-07T13:37:51;9.73;;;7.00;;
9536;SDS011;4807;48.024;11.726;2022-12-07T13:41:00;8.57;;;6.97;;
9536;SDS011;4807;48.024;11.726;2022-12-07T13:44:20;9.43;;;6.43;;
9536;SDS011;4807;48.024;11.726;2022-12-07T13:47:32;9.00;;;6.97;;
9536;SDS011;4807;48.024;11.726;2022-12-07T13:50:52;7.87;;;6.37;;
9536;SDS011;4807;48.024;11.726;2022-12-07T13:54:08;8.70;;;5.90;;
9536;SDS011;4807;48.024;11.726;2022-12-07T13:57:19;7.63;;;6.00;;
9536;SDS011;4807;48.024;11.726;2022-12-07T14:00:28;6.80;;;5.90;;
9536;SDS011;4807;48.024;11.726;2022-12-07T14:03:39;8.27;;;5.90;;
9536;SDS011;4807;48.024;11.726;2022-12-07T14:06:48;8.67;;;6.73;;
9536;SDS011;4807;48.024;11.726;2022-12-07T14:09:59;8.07;;;6.40;;
9536;SDS011;4807;48.024;11.726;2022-12-07T14:13:22;8.60;;;5.97;;
9536;SDS011;4807;48.024;11.726;2022-12-07T14:16:40;9.63;;;6.53;;
9536;SDS011;4807;48.024;11.726;2022-12-07T14:19:50;10.40;;;6.70;;
9536;SDS011;4807;48.024;11.726;2022-12-07T14:23:01;8.27;;;5.47;;
9536;SDS011;4807;48.024;11.726;2022-12-07T14:26:18;8.37;;;5.90;;
9536;SDS011;4807;48.024;11.726;2022-12-07T14:29:29;9.10;;;5.87;;
9536;SDS011;4807;48.024;11.726;2022-12-07T14:32:40;8.80;;;6.03;;
9536;SDS011;4807;48.024;11.726;2022-12-07T14:35:56;7.13;;;5.80;;
9536;SDS011;4807;48.024;11.726;2022-12-07T14:39:04;8.80;;;6.07;;
9536;SDS011;4807;48.024;11.726;2022-12-07T14:42:18;8.17;;;6.13;;
9536;SDS011;4807;48.024;11.726;2022-12-07T14:45:28;12.37;;;6.67;;
9536;SDS011;4807;48.024;11.726;2022-12-07T14:48:38;8.57;;;6.83;;
9536;SDS011;4807;48.024;11.726;2022-12-07T14:52:09;6.03;;;4.90;;
9536;SDS011;4807;48.024;11.726;2022-12-07T14:55:44;7.47;;;5.90;;
9536;SDS011;4807;48.024;11.726;2022-12-07T14:58:52;8.03;;;5.67;;
9536;SDS011;4807;48.024;11.726;2022-12-07T15:02:01;9.20;;;5.93;;
9536;SDS011;4807;48.024;11.726;2022-12-07T15:05:11;8.20;;;6.20;;
9536;SDS011;4807;48.024;11.726;2022-12-07T15:08:23;8.90;;;6.60;;
9536;SDS011;4807;48.024;11.726;2022-12-07T15:11:32;7.90;;;6.37;;
9536;SDS011;4807;48.024;11.726;2022-12-07T15:14:44;10.13;;;7.57;;
9536;SDS011;4807;48.024;11.726;2022-12-07T15:17:52;9.93;;;6.93;;
9536;SDS011;4807;48.024;11.726;2022-12-07T15:21:01;10.03;;;7.17;;
9536;SDS011;4807;48.024;11.726;2022-12-07T15:24:11;8.80;;;6.50;;
9536;SDS011;4807;48.024;11.726;2022-12-07T15:27:20;8.03;;;6.63;;
9536;SDS011;4807;48.024;11.726;2022-12-07T15:30:28;9.83;;;6.87;;
9536;SDS011;4807;48.024;11.726;2022-12-07T15:33:36;8.03;;;6.47;;
9536;SDS011;4807;48.024;11.726;2022-12-07T15:36:46;13.27;;;8.23;;
9536;SDS011;4807;48.024;11.726;2022-12-07T15:39:56;16.67;;;9.33;;
9536;SDS011;4807;48.024;11.726;2022-12-07T15:43:12;11.57;;;8.00;;
9536;SDS011;4807;48.024;11.726;2022-12-07T15:46:36;10.33;;;7.87;;
9536;SDS011;4807;48.024;11.726;2022-12-07T15:49:46;11.23;;;7.67;;
9536;SDS011;4807;48.024;11.726;2022-12-07T15:52:55;9.87;;;7.27;;
9536;SDS011;4807;48.024;11.726;2022-12-07T15:56:07;10.33;;;7.33;;
9536;SDS011;4807;48.024;11.726;2022-12-07T15:59:16;10.30;;;7.27;;
9536;SDS011;4807;48.024;11.726;2022-12-07T16:02:25;10.10;;;7.37;;
9536;SDS011;4807;48.024;11.726;2022-12-07T16:05:33;12.53;;;8.53;;
9536;SDS011;4807;48.024;11.726;2022-12-07T16:08:42;13.03;;;9.37;;
9536;SDS011;4807;48.024;11.726;2022-12-07T16:11:52;14.60;;;9.63;;
9536;SDS011;4807;48.024;11.726;2022-12-07T16:15:00;11.70;;;8.43;;
9536;SDS011;4807;48.024;11.726;2022-12-07T16:18:10;17.37;;;11.20;;
9536;SDS011;4807;48.024;11.726;2022-12-07T16:21:19;20.37;;;12.43;;
9536;SDS011;4807;48.024;11.726;2022-12-07T16:24:31;17.40;;;12.43;;
9536;SDS011;4807;48.024;11.726;2022-12-07T16:27:41;17.67;;;13.07;;
9536;SDS011;4807;48.024;11.726;2022-12-07T16:30:49;18.30;;;13.27;;
9536;SDS011;4807;48.024;11.726;2022-12-07T16:34:09;23.47;;;17.60;;
9536;SDS011;4807;48.024;11.726;2022-12-07T16:37:17;30.17;;;20.50;;
9536;SDS011;4807;48.024;11.726;2022-12-07T16:40:26;34.87;;;22.37;;
9536;SDS011;4807;48.024;11.726;2022-12-07T16:43:36;37.60;;;23.70;;
9536;SDS011;4807;48.024;11.726;2022-12-07T16:46:44;43.33;;;26.13;;
9536;SDS011;4807;48.024;11.726;2022-12-07T16:49:53;30.83;;;20.67;;
9536;SDS011;4807;48.024;11.726;2022-12-07T16:53:02;20.57;;;14.00;;
9536;SDS011;4807;48.024;11.726;2022-12-07T16:56:11;12.97;;;10.43;;
9536;SDS011;4807;48.024;11.726;2022-12-07T16:59:24;37.43;;;17.83;;
9536;SDS011;4807;48.024;11.726;2022-12-07T17:02:32;32.40;;;19.40;;
9536;SDS011;4807;48.024;11.726;2022-12-07T17:05:41;20.70;;;14.13;;
9536;SDS011;4807;48.024;11.726;2022-12-07T17:08:51;19.23;;;13.20;;
9536;SDS011;4807;48.024;11.726;2022-12-07T17:12:00;21.17;;;13.07;;
9536;SDS011;4807;48.024;11.726;2022-12-07T17:15:11;21.37;;;14.07;;
9536;SDS011;4807;48.024;11.726;2022-12-07T17:18:27;24.47;;;15.33;;
9536;SDS011;4807;48.024;11.726;2022-12-07T17:21:38;23.93;;;16.07;;
9536;SDS011;4807;48.024;11.726;2022-12-07T17:24:47;24.03;;;15.37;;
9536;SDS011;4807;48.024;11.726;2022-12-07T17:27:56;18.33;;;13.40;;
9536;SDS011;4807;48.024;11.726;2022-12-07T17:31:07;19.87;;;15.07;;
9536;SDS011;4807;48.024;11.726;2022-12-07T17:34:20;25.13;;;17.07;;
9536;SDS011;4807;48.024;11.726;2022-12-07T17:37:28;21.10;;;14.77;;
9536;SDS011;4807;48.024;11.726;2022-12-07T17:40:38;17.73;;;13.27;;
9536;SDS011;4807;48.024;11.726;2022-12-07T17:43:47;19.87;;;11.73;;
9536;SDS011;4807;48.024;11.726;2022-12-07T17:46:57;17.13;;;11.33;;
9536;SDS011;4807;48.024;11.726;2022-12-07T17:50:08;12.70;;;8.90;;
9536;SDS011;4807;48.024;11.726;2022-12-07T17:53:17;14.10;;;9.93;;
9536;SDS011;4807;48.024;11.726;2022-12-07T17:56:24;13.27;;;8.53;;
9536;SDS011;4807;48.024;11.726;2022-12-07T17:59:34;14.53;;;8.70;;
9536;SDS011;4807;48.024;11.726;2022-12-07T18:02:44;13.63;;;9.03;;
9536;SDS011;4807;48.024;11.726;2022-12-07T18:05:53;9.80;;;7.53;;
9536;SDS011;4807;48.024;11.726;2022-12-07T18:09:01;12.97;;;9.00;;
9536;SDS011;4807;48.024;11.726;2022-12-07T18:12:11;14.13;;;8.37;;
9536;SDS011;4807;48.024;11.726;2022-12-07T18:15:19;11.77;;;7.57;;
9536;SDS011;4807;48.024;11.726;2022-12-07T18:18:29;9.77;;;7.33;;
9536;SDS011;4807;48.024;11.726;2022-12-07T18:21:37;10.03;;;7.47;;
9536;SDS011;4807;48.024;11.726;2022-12-07T18:24:46;15.00;;;8.67;;
9536;SDS011;4807;48.024;11.726;2022-12-07T18:27:54;14.30;;;8.87;;
9536;SDS011;4807;48.024;11.726;2022-12-07T18:31:03;15.53;;;9.17;;
9536;SDS011;4807;48.024;11.726;2022-12-07T18:34:22;13.10;;;8.10;;
9536;SDS011;4807;48.024;11.726;2022-12-07T18:37:31;12.70;;;8.00;;
9536;SDS011;4807;48.024;11.726;2022-12-07T18:40:40;11.93;;;8.20;;
9536;SDS011;4807;48.024;11.726;2022-12-07T18:43:50;11.63;;;7.30;;
9536;SDS011;4807;48.024;11.726;2022-12-07T18:46:58;10.60;;;7.23;;
9536;SDS011;4807;48.024;11.726;2022-12-07T18:50:08;8.70;;;6.57;;
9536;SDS011;4807;48.024;11.726;2022-12-07T18:53:17;9.70;;;7.33;;
9536;SDS011;4807;48.024;11.726;2022-12-07T18:56:25;9.57;;;7.70;;
9536;SDS011;4807;48.024;11.726;2022-12-07T18:59:34;11.03;;;6.60;;
9536;SDS011;4807;48.024;11.726;2022-12-07T19:02:55;14.33;;;9.00;;
9536;SDS011;4807;48.024;11.726;2022-12-07T19:06:06;18.93;;;12.00;;
9536;SDS011;4807;48.024;11.726;2022-12-07T19:09:15;14.33;;;9.13;;
9536;SDS011;4807;48.024;11.726;2022-12-07T19:12:25;12.33;;;8.60;;
9536;SDS011;4807;48.024;11.726;2022-12-07T19:15:33;10.73;;;7.40;;
9536;SDS011;4807;48.024;11.726;2022-12-07T19:18:42;9.43;;;7.60;;
9536;SDS011;4807;48.024;11.726;2022-12-07T19:21:58;10.57;;;7.43;;
9536;SDS011;4807;48.024;11.726;2022-12-07T19:25:07;11.70;;;7.67;;
9536;SDS011;4807;48.024;11.726;2022-12-07T19:28:16;10.97;;;8.00;;
9536;SDS011;4807;48.024;11.726;2022-12-07T19:31:24;14.30;;;8.60;;
9536;SDS011;4807;48.024;11.726;2022-12-07T19:34:32;15.03;;;11.10;;
9536;SDS011;4807;48.024;11.726;2022-12-07T19:37:43;13.40;;;10.00;;
9536;SDS011;4807;48.024;11.726;2022-12-07T19:40:51;15.60;;;11.53;;
9536;SDS011;4807;48.024;11.726;2022-12-07T19:43:59;13.90;;;10.07;;